sensor_id;sensor_type;location;lat;lon;timestamp;P1;durP1;ratioP1;P2;durP2;ratioP2
15936;SDS011;9163;48.818;8.976;2023-04-25T00:00:10;3.90;;;1.90;;
15936;SDS011;9163;48.818;8.976;2023-04-25T00:02:38;4.00;;;2.00;;
15936;SDS011;9163;48.818;8.976;2023-04-25T00:05:07;3.43;;;1.93;;
15936;SDS011;9163;48.818;8.976;2023-04-25T00:07:34;2.13;;;1.73;;
15936;SDS011;9163;48.818;8.976;2023-04-25T00:10:02;3.80;;;2.00;;
15936;SDS011;9163;48.818;8.976;2023-04-25T00:12:30;2.80;;;2.10;;
15936;SDS011;9163;48.818;8.976;2023-04-25T00:14:58;4.83;;;2.20;;
15936;SDS011;9163;48.818;8.976;2023-04-25T00:17:26;2.80;;;2.10;;
15936;SDS011;9163;48.818;8.976;2023-04-25T00:19:53;3.30;;;2.30;;
15936;SDS011;9163;48.818;8.976;2023-04-25T00:22:22;2.53;;;2.33;;
15936;SDS011;9163;48.818;8.976;2023-04-25T00:24:50;3.33;;;2.63;;
15936;SDS011;9163;48.818;8.976;2023-04-25T00:27:18;5.10;;;2.70;;
15936;SDS011;9163;48.818;8.976;2023-04-25T00:29:46;3.67;;;2.60;;
15936;SDS011;9163;48.818;8.976;2023-04-25T00:32:13;4.43;;;2.80;;
15936;SDS011;9163;48.818;8.976;2023-04-25T00:34:40;3.50;;;2.20;;
15936;SDS011;9163;48.818;8.976;2023-04-25T00:37:07;2.77;;;2.30;;
15936;SDS011;9163;48.818;8.976;2023-04-25T00:39:37;5.50;;;2.30;;
15936;SDS011;9163;48.818;8.976;2023-04-25T00:42:04;7.73;;;2.90;;
15936;SDS011;9163;48.818;8.976;2023-04-25T00:44:31;3.17;;;2.60;;
15936;SDS011;9163;48.818;8.976;2023-04-25T00:47:00;5.97;;;2.50;;
15936;SDS011;9163;48.818;8.976;2023-04-25T00:49:28;4.83;;;2.70;;
15936;SDS011;9163;48.818;8.976;2023-04-25T00:51:56;3.23;;;2.43;;
15936;SDS011;9163;48.818;8.976;2023-04-25T00:54:23;4.13;;;2.90;;
15936;SDS011;9163;48.818;8.976;2023-04-25T00:56:52;4.97;;;2.90;;
15936;SDS011;9163;48.818;8.976;2023-04-25T00:59:20;4.67;;;2.87;;
15936;SDS011;9163;48.818;8.976;2023-04-25T01:01:47;3.33;;;2.70;;
15936;SDS011;9163;48.818;8.976;2023-04-25T01:04:15;4.80;;;3.00;;
15936;SDS011;9163;48.818;8.976;2023-04-25T01:06:42;5.53;;;2.83;;
15936;SDS011;9163;48.818;8.976;2023-04-25T01:09:09;4.00;;;2.80;;
15936;SDS011;9163;48.818;8.976;2023-04-25T01:11:38;5.73;;;2.93;;
15936;SDS011;9163;48.818;8.976;2023-04-25T01:14:07;5.30;;;3.03;;
15936;SDS011;9163;48.818;8.976;2023-04-25T01:16:34;4.03;;;2.90;;
15936;SDS011;9163;48.818;8.976;2023-04-25T01:19:03;4.13;;;3.17;;
15936;SDS011;9163;48.818;8.976;2023-04-25T01:21:37;4.67;;;2.97;;
15936;SDS011;9163;48.818;8.976;2023-04-25T01:24:05;6.17;;;3.10;;
15936;SDS011;9163;48.818;8.976;2023-04-25T01:26:33;3.60;;;3.10;;
15936;SDS011;9163;48.818;8.976;2023-04-25T01:29:01;5.97;;;2.93;;
15936;SDS011;9163;48.818;8.976;2023-04-25T01:31:30;4.00;;;2.87;;
15936;SDS011;9163;48.818;8.976;2023-04-25T01:33:58;5.90;;;2.97;;
15936;SDS011;9163;48.818;8.976;2023-04-25T01:36:26;5.53;;;2.80;;
15936;SDS011;9163;48.818;8.976;2023-04-25T01:38:54;3.57;;;2.90;;
15936;SDS011;9163;48.818;8.976;2023-04-25T01:41:22;4.33;;;2.90;;
15936;SDS011;9163;48.818;8.976;2023-04-25T01:43:50;3.20;;;2.70;;
15936;SDS011;9163;48.818;8.976;2023-04-25T01:46:17;3.00;;;2.43;;
15936;SDS011;9163;48.818;8.976;2023-04-25T01:48:45;3.17;;;2.70;;
15936;SDS011;9163;48.818;8.976;2023-04-25T01:51:12;4.07;;;2.80;;
15936;SDS011;9163;48.818;8.976;2023-04-25T01:53:40;3.63;;;2.80;;
15936;SDS011;9163;48.818;8.976;2023-04-25T01:56:10;4.43;;;2.87;;
15936;SDS011;9163;48.818;8.976;2023-04-25T01:58:37;4.20;;;2.73;;
15936;SDS011;9163;48.818;8.976;2023-04-25T02:01:04;4.70;;;2.87;;
15936;SDS011;9163;48.818;8.976;2023-04-25T02:03:31;4.97;;;3.17;;
15936;SDS011;9163;48.818;8.976;2023-04-25T02:05:59;3.17;;;2.83;;
15936;SDS011;9163;48.818;8.976;2023-04-25T02:08:26;4.17;;;2.93;;
15936;SDS011;9163;48.818;8.976;2023-04-25T02:10:53;4.60;;;3.13;;
15936;SDS011;9163;48.818;8.976;2023-04-25T02:13:22;7.43;;;3.23;;
15936;SDS011;9163;48.818;8.976;2023-04-25T02:15:49;5.67;;;3.50;;
15936;SDS011;9163;48.818;8.976;2023-04-25T02:18:16;3.87;;;2.63;;
15936;SDS011;9163;48.818;8.976;2023-04-25T02:20:45;4.00;;;2.57;;
15936;SDS011;9163;48.818;8.976;2023-04-25T02:23:13;3.90;;;2.93;;
15936;SDS011;9163;48.818;8.976;2023-04-25T02:25:40;3.70;;;2.90;;
15936;SDS011;9163;48.818;8.976;2023-04-25T02:28:08;4.67;;;3.00;;
15936;SDS011;9163;48.818;8.976;2023-04-25T02:30:37;4.50;;;2.93;;
15936;SDS011;9163;48.818;8.976;2023-04-25T02:33:04;4.03;;;2.80;;
15936;SDS011;9163;48.818;8.976;2023-04-25T02:35:31;3.13;;;2.83;;
15936;SDS011;9163;48.818;8.976;2023-04-25T02:37:59;3.53;;;2.90;;
15936;SDS011;9163;48.818;8.976;2023-04-25T02:40:26;5.27;;;3.10;;
15936;SDS011;9163;48.818;8.976;2023-04-25T02:42:53;4.43;;;2.87;;
15936;SDS011;9163;48.818;8.976;2023-04-25T02:45:20;5.93;;;3.07;;
15936;SDS011;9163;48.818;8.976;2023-04-25T02:47:49;4.23;;;2.90;;
15936;SDS011;9163;48.818;8.976;2023-04-25T02:50:16;4.00;;;2.83;;
15936;SDS011;9163;48.818;8.976;2023-04-25T02:52:44;4.77;;;2.97;;
15936;SDS011;9163;48.818;8.976;2023-04-25T02:55:12;3.43;;;3.13;;
15936;SDS011;9163;48.818;8.976;2023-04-25T02:57:39;4.87;;;3.07;;
15936;SDS011;9163;48.818;8.976;2023-04-25T03:00:07;3.77;;;2.93;;
15936;SDS011;9163;48.818;8.976;2023-04-25T03:02:37;3.57;;;2.90;;
15936;SDS011;9163;48.818;8.976;2023-04-25T03:05:06;4.77;;;3.10;;
15936;SDS011;9163;48.818;8.976;2023-04-25T03:07:33;4.43;;;3.07;;
15936;SDS011;9163;48.818;8.976;2023-04-25T03:10:00;4.00;;;3.10;;
15936;SDS011;9163;48.818;8.976;2023-04-25T03:12:27;4.63;;;3.23;;
15936;SDS011;9163;48.818;8.976;2023-04-25T03:14:55;4.80;;;3.33;;
15936;SDS011;9163;48.818;8.976;2023-04-25T03:17:22;4.30;;;3.20;;
15936;SDS011;9163;48.818;8.976;2023-04-25T03:19:49;5.53;;;3.20;;
15936;SDS011;9163;48.818;8.976;2023-04-25T03:22:18;4.30;;;3.47;;
15936;SDS011;9163;48.818;8.976;2023-04-25T03:24:45;3.93;;;3.57;;
15936;SDS011;9163;48.818;8.976;2023-04-25T03:27:12;5.07;;;3.60;;
15936;SDS011;9163;48.818;8.976;2023-04-25T03:29:39;7.47;;;3.37;;
15936;SDS011;9163;48.818;8.976;2023-04-25T03:32:07;4.27;;;3.50;;
15936;SDS011;9163;48.818;8.976;2023-04-25T03:34:34;6.10;;;3.53;;
15936;SDS011;9163;48.818;8.976;2023-04-25T03:37:01;4.10;;;3.40;;
15936;SDS011;9163;48.818;8.976;2023-04-25T03:39:30;3.90;;;3.47;;
15936;SDS011;9163;48.818;8.976;2023-04-25T03:41:57;4.23;;;3.60;;
15936;SDS011;9163;48.818;8.976;2023-04-25T03:44:24;6.67;;;3.57;;
15936;SDS011;9163;48.818;8.976;2023-04-25T03:46:51;5.53;;;3.40;;
15936;SDS011;9163;48.818;8.976;2023-04-25T03:49:18;5.03;;;3.33;;
15936;SDS011;9163;48.818;8.976;2023-04-25T03:51:46;5.53;;;3.50;;
15936;SDS011;9163;48.818;8.976;2023-04-25T03:54:13;4.67;;;3.20;;
15936;SDS011;9163;48.818;8.976;2023-04-25T03:56:41;5.23;;;3.43;;
15936;SDS011;9163;48.818;8.976;2023-04-25T03:59:09;6.23;;;3.67;;
15936;SDS011;9163;48.818;8.976;2023-04-25T04:01:36;5.80;;;4.07;;
15936;SDS011;9163;48.818;8.976;2023-04-25T04:04:03;4.77;;;4.00;;
15936;SDS011;9163;48.818;8.976;2023-04-25T04:06:31;4.30;;;3.90;;
15936;SDS011;9163;48.818;8.976;2023-04-25T04:08:59;6.43;;;3.47;;
15936;SDS011;9163;48.818;8.976;2023-04-25T04:11:26;7.00;;;3.80;;
15936;SDS011;9163;48.818;8.976;2023-04-25T04:13:55;7.63;;;4.10;;
15936;SDS011;9163;48.818;8.976;2023-04-25T04:16:22;6.07;;;4.00;;
15936;SDS011;9163;48.818;8.976;2023-04-25T04:18:49;5.87;;;3.80;;
15936;SDS011;9163;48.818;8.976;2023-04-25T04:21:16;7.17;;;4.53;;
15936;SDS011;9163;48.818;8.976;2023-04-25T04:23:43;7.47;;;5.00;;
15936;SDS011;9163;48.818;8.976;2023-04-25T04:26:11;6.50;;;4.57;;
15936;SDS011;9163;48.818;8.976;2023-04-25T04:28:40;6.63;;;4.43;;
15936;SDS011;9163;48.818;8.976;2023-04-25T04:31:09;6.93;;;5.00;;
15936;SDS011;9163;48.818;8.976;2023-04-25T04:33:37;8.00;;;4.77;;
15936;SDS011;9163;48.818;8.976;2023-04-25T04:36:04;16.43;;;12.00;;
15936;SDS011;9163;48.818;8.976;2023-04-25T04:38:33;9.57;;;7.07;;
15936;SDS011;9163;48.818;8.976;2023-04-25T04:41:01;8.57;;;7.40;;
15936;SDS011;9163;48.818;8.976;2023-04-25T04:43:29;6.27;;;5.10;;
15936;SDS011;9163;48.818;8.976;2023-04-25T04:45:58;9.77;;;5.80;;
15936;SDS011;9163;48.818;8.976;2023-04-25T04:48:28;7.17;;;5.00;;
15936;SDS011;9163;48.818;8.976;2023-04-25T04:50:58;6.33;;;5.20;;
15936;SDS011;9163;48.818;8.976;2023-04-25T04:53:25;7.70;;;5.90;;
15936;SDS011;9163;48.818;8.976;2023-04-25T04:55:53;7.50;;;5.20;;
15936;SDS011;9163;48.818;8.976;2023-04-25T04:58:20;6.40;;;5.43;;
15936;SDS011;9163;48.818;8.976;2023-04-25T05:00:48;7.27;;;5.60;;
15936;SDS011;9163;48.818;8.976;2023-04-25T05:03:15;7.47;;;4.47;;
15936;SDS011;9163;48.818;8.976;2023-04-25T05:05:44;7.33;;;4.57;;
15936;SDS011;9163;48.818;8.976;2023-04-25T05:08:11;6.20;;;4.17;;
15936;SDS011;9163;48.818;8.976;2023-04-25T05:10:38;5.80;;;4.30;;
15936;SDS011;9163;48.818;8.976;2023-04-25T05:13:07;4.43;;;3.80;;
15936;SDS011;9163;48.818;8.976;2023-04-25T05:15:34;4.83;;;3.97;;
15936;SDS011;9163;48.818;8.976;2023-04-25T05:18:01;4.63;;;4.07;;
15936;SDS011;9163;48.818;8.976;2023-04-25T05:20:29;5.43;;;3.33;;
15936;SDS011;9163;48.818;8.976;2023-04-25T05:22:57;4.53;;;3.67;;
15936;SDS011;9163;48.818;8.976;2023-04-25T05:25:25;4.67;;;4.10;;
15936;SDS011;9163;48.818;8.976;2023-04-25T05:27:52;6.10;;;5.60;;
15936;SDS011;9163;48.818;8.976;2023-04-25T05:30:20;6.30;;;5.40;;
15936;SDS011;9163;48.818;8.976;2023-04-25T05:32:47;6.43;;;4.73;;
15936;SDS011;9163;48.818;8.976;2023-04-25T05:35:14;5.53;;;4.00;;
15936;SDS011;9163;48.818;8.976;2023-04-25T05:37:42;5.10;;;3.60;;
15936;SDS011;9163;48.818;8.976;2023-04-25T05:40:10;4.10;;;3.63;;
15936;SDS011;9163;48.818;8.976;2023-04-25T05:42:38;6.33;;;4.00;;
15936;SDS011;9163;48.818;8.976;2023-04-25T05:45:05;7.43;;;4.73;;
15936;SDS011;9163;48.818;8.976;2023-04-25T05:47:33;6.00;;;4.50;;
15936;SDS011;9163;48.818;8.976;2023-04-25T05:50:00;5.70;;;4.17;;
15936;SDS011;9163;48.818;8.976;2023-04-25T05:52:28;6.47;;;4.40;;
15936;SDS011;9163;48.818;8.976;2023-04-25T05:54:55;6.17;;;4.37;;
15936;SDS011;9163;48.818;8.976;2023-04-25T05:57:24;6.03;;;4.80;;
15936;SDS011;9163;48.818;8.976;2023-04-25T05:59:52;5.57;;;4.33;;
15936;SDS011;9163;48.818;8.976;2023-04-25T06:02:20;6.03;;;5.00;;
15936;SDS011;9163;48.818;8.976;2023-04-25T06:04:48;5.47;;;3.90;;
15936;SDS011;9163;48.818;8.976;2023-04-25T06:07:16;5.50;;;3.93;;
15936;SDS011;9163;48.818;8.976;2023-04-25T06:09:43;5.80;;;4.20;;
15936;SDS011;9163;48.818;8.976;2023-04-25T06:12:11;5.20;;;4.33;;
15936;SDS011;9163;48.818;8.976;2023-04-25T06:14:40;5.17;;;4.67;;
15936;SDS011;9163;48.818;8.976;2023-04-25T06:17:07;4.83;;;4.17;;
15936;SDS011;9163;48.818;8.976;2023-04-25T06:19:35;6.73;;;4.40;;
15936;SDS011;9163;48.818;8.976;2023-04-25T06:22:02;5.57;;;4.43;;
15936;SDS011;9163;48.818;8.976;2023-04-25T06:24:30;5.43;;;4.30;;
15936;SDS011;9163;48.818;8.976;2023-04-25T06:26:57;7.20;;;4.63;;
15936;SDS011;9163;48.818;8.976;2023-04-25T06:29:24;5.67;;;3.83;;
15936;SDS011;9163;48.818;8.976;2023-04-25T06:31:53;5.00;;;4.00;;
15936;SDS011;9163;48.818;8.976;2023-04-25T06:34:20;5.73;;;3.87;;
15936;SDS011;9163;48.818;8.976;2023-04-25T06:36:47;6.63;;;4.00;;
15936;SDS011;9163;48.818;8.976;2023-04-25T06:39:15;5.03;;;4.10;;
15936;SDS011;9163;48.818;8.976;2023-04-25T06:41:42;5.53;;;4.07;;
15936;SDS011;9163;48.818;8.976;2023-04-25T06:44:09;6.27;;;3.60;;
15936;SDS011;9163;48.818;8.976;2023-04-25T06:46:36;5.67;;;3.83;;
15936;SDS011;9163;48.818;8.976;2023-04-25T06:49:05;5.27;;;3.80;;
15936;SDS011;9163;48.818;8.976;2023-04-25T06:51:33;5.60;;;3.73;;
15936;SDS011;9163;48.818;8.976;2023-04-25T06:54:00;5.00;;;3.60;;
15936;SDS011;9163;48.818;8.976;2023-04-25T06:56:29;4.53;;;3.70;;
15936;SDS011;9163;48.818;8.976;2023-04-25T06:58:56;6.90;;;4.27;;
15936;SDS011;9163;48.818;8.976;2023-04-25T07:01:25;5.57;;;4.30;;
15936;SDS011;9163;48.818;8.976;2023-04-25T07:03:53;7.00;;;3.90;;
15936;SDS011;9163;48.818;8.976;2023-04-25T07:06:21;5.30;;;4.23;;
15936;SDS011;9163;48.818;8.976;2023-04-25T07:08:48;6.67;;;5.07;;
15936;SDS011;9163;48.818;8.976;2023-04-25T07:11:16;5.53;;;4.63;;
15936;SDS011;9163;48.818;8.976;2023-04-25T07:13:43;8.53;;;4.60;;
15936;SDS011;9163;48.818;8.976;2023-04-25T07:16:10;5.27;;;4.60;;
15936;SDS011;9163;48.818;8.976;2023-04-25T07:18:37;5.87;;;4.60;;
15936;SDS011;9163;48.818;8.976;2023-04-25T07:21:05;5.90;;;4.57;;
15936;SDS011;9163;48.818;8.976;2023-04-25T07:23:33;5.47;;;4.73;;
15936;SDS011;9163;48.818;8.976;2023-04-25T07:26:00;7.47;;;4.80;;
15936;SDS011;9163;48.818;8.976;2023-04-25T07:28:28;5.93;;;4.50;;
15936;SDS011;9163;48.818;8.976;2023-04-25T07:30:55;6.43;;;5.47;;
15936;SDS011;9163;48.818;8.976;2023-04-25T07:33:23;7.23;;;5.47;;
15936;SDS011;9163;48.818;8.976;2023-04-25T07:35:50;8.37;;;5.43;;
15936;SDS011;9163;48.818;8.976;2023-04-25T07:38:18;6.80;;;5.30;;
15936;SDS011;9163;48.818;8.976;2023-04-25T07:40:47;6.20;;;5.10;;
15936;SDS011;9163;48.818;8.976;2023-04-25T07:43:14;7.30;;;5.07;;
15936;SDS011;9163;48.818;8.976;2023-04-25T07:45:42;7.20;;;5.33;;
15936;SDS011;9163;48.818;8.976;2023-04-25T07:48:09;7.57;;;5.30;;
15936;SDS011;9163;48.818;8.976;2023-04-25T07:50:36;7.23;;;5.23;;
15936;SDS011;9163;48.818;8.976;2023-04-25T07:53:03;7.80;;;4.80;;
15936;SDS011;9163;48.818;8.976;2023-04-25T07:55:31;5.93;;;4.60;;
15936;SDS011;9163;48.818;8.976;2023-04-25T07:57:59;10.10;;;5.30;;
15936;SDS011;9163;48.818;8.976;2023-04-25T08:00:26;5.17;;;4.30;;
15936;SDS011;9163;48.818;8.976;2023-04-25T08:02:54;4.83;;;4.33;;
15936;SDS011;9163;48.818;8.976;2023-04-25T08:05:22;4.87;;;4.37;;
15936;SDS011;9163;48.818;8.976;2023-04-25T08:07:49;7.07;;;4.37;;
15936;SDS011;9163;48.818;8.976;2023-04-25T08:10:16;5.10;;;4.30;;
15936;SDS011;9163;48.818;8.976;2023-04-25T08:12:43;5.70;;;4.57;;
15936;SDS011;9163;48.818;8.976;2023-04-25T08:15:12;6.03;;;4.37;;
15936;SDS011;9163;48.818;8.976;2023-04-25T08:17:40;5.37;;;4.30;;
15936;SDS011;9163;48.818;8.976;2023-04-25T08:20:09;4.77;;;4.27;;
15936;SDS011;9163;48.818;8.976;2023-04-25T08:22:37;5.30;;;4.20;;
15936;SDS011;9163;48.818;8.976;2023-04-25T08:25:05;5.57;;;4.47;;
15936;SDS011;9163;48.818;8.976;2023-04-25T08:27:32;5.77;;;4.63;;
15936;SDS011;9163;48.818;8.976;2023-04-25T08:30:00;5.83;;;4.93;;
15936;SDS011;9163;48.818;8.976;2023-04-25T08:32:29;7.30;;;5.30;;
15936;SDS011;9163;48.818;8.976;2023-04-25T08:34:57;7.30;;;5.53;;
15936;SDS011;9163;48.818;8.976;2023-04-25T08:37:24;7.00;;;5.90;;
15936;SDS011;9163;48.818;8.976;2023-04-25T08:39:51;7.70;;;5.40;;
15936;SDS011;9163;48.818;8.976;2023-04-25T08:42:18;9.20;;;5.37;;
15936;SDS011;9163;48.818;8.976;2023-04-25T08:44:47;7.90;;;5.80;;
15936;SDS011;9163;48.818;8.976;2023-04-25T08:47:15;5.60;;;5.10;;
15936;SDS011;9163;48.818;8.976;2023-04-25T08:49:46;6.80;;;5.13;;
15936;SDS011;9163;48.818;8.976;2023-04-25T08:52:13;7.97;;;5.83;;
15936;SDS011;9163;48.818;8.976;2023-04-25T08:54:42;7.30;;;5.77;;
15936;SDS011;9163;48.818;8.976;2023-04-25T08:57:14;7.57;;;6.07;;
15936;SDS011;9163;48.818;8.976;2023-04-25T08:59:42;8.13;;;5.30;;
15936;SDS011;9163;48.818;8.976;2023-04-25T09:02:11;9.13;;;6.50;;
15936;SDS011;9163;48.818;8.976;2023-04-25T09:04:40;8.70;;;6.27;;
15936;SDS011;9163;48.818;8.976;2023-04-25T09:07:10;6.63;;;5.73;;
15936;SDS011;9163;48.818;8.976;2023-04-25T09:09:37;7.37;;;5.83;;
15936;SDS011;9163;48.818;8.976;2023-04-25T09:12:05;8.80;;;6.77;;
15936;SDS011;9163;48.818;8.976;2023-04-25T09:14:32;8.80;;;5.83;;
15936;SDS011;9163;48.818;8.976;2023-04-25T09:17:00;9.20;;;6.80;;
15936;SDS011;9163;48.818;8.976;2023-04-25T09:19:30;6.23;;;5.53;;
15936;SDS011;9163;48.818;8.976;2023-04-25T09:21:59;7.33;;;5.23;;
15936;SDS011;9163;48.818;8.976;2023-04-25T09:24:32;6.20;;;4.37;;
15936;SDS011;9163;48.818;8.976;2023-04-25T09:27:02;5.53;;;4.07;;
15936;SDS011;9163;48.818;8.976;2023-04-25T09:29:31;4.07;;;3.23;;
15936;SDS011;9163;48.818;8.976;2023-04-25T09:32:16;3.23;;;2.93;;
15936;SDS011;9163;48.818;8.976;2023-04-25T09:34:46;3.60;;;3.30;;
15936;SDS011;9163;48.818;8.976;2023-04-25T09:37:18;3.50;;;2.57;;
15936;SDS011;9163;48.818;8.976;2023-04-25T09:39:48;2.77;;;2.30;;
15936;SDS011;9163;48.818;8.976;2023-04-25T09:42:17;2.57;;;2.10;;
15936;SDS011;9163;48.818;8.976;2023-04-25T09:44:44;2.10;;;1.90;;
15936;SDS011;9163;48.818;8.976;2023-04-25T09:47:13;2.10;;;1.67;;
15936;SDS011;9163;48.818;8.976;2023-04-25T09:49:42;2.27;;;1.80;;
15936;SDS011;9163;48.818;8.976;2023-04-25T09:52:13;2.97;;;2.17;;
15936;SDS011;9163;48.818;8.976;2023-04-25T09:54:42;2.43;;;1.70;;
15936;SDS011;9163;48.818;8.976;2023-04-25T09:57:12;2.10;;;1.80;;
15936;SDS011;9163;48.818;8.976;2023-04-25T09:59:42;1.97;;;1.77;;
15936;SDS011;9163;48.818;8.976;2023-04-25T10:02:11;2.13;;;1.50;;
15936;SDS011;9163;48.818;8.976;2023-04-25T10:04:39;1.80;;;1.50;;
15936;SDS011;9163;48.818;8.976;2023-04-25T10:07:08;1.83;;;1.50;;
15936;SDS011;9163;48.818;8.976;2023-04-25T10:09:36;1.50;;;1.40;;
15936;SDS011;9163;48.818;8.976;2023-04-25T10:12:06;2.80;;;1.80;;
15936;SDS011;9163;48.818;8.976;2023-04-25T10:14:35;2.03;;;1.47;;
15936;SDS011;9163;48.818;8.976;2023-04-25T10:17:03;2.10;;;1.80;;
15936;SDS011;9163;48.818;8.976;2023-04-25T10:19:30;2.20;;;1.47;;
15936;SDS011;9163;48.818;8.976;2023-04-25T10:22:02;1.70;;;1.40;;
15936;SDS011;9163;48.818;8.976;2023-04-25T10:24:32;1.70;;;1.40;;
15936;SDS011;9163;48.818;8.976;2023-04-25T10:27:01;1.43;;;1.33;;
15936;SDS011;9163;48.818;8.976;2023-04-25T10:29:29;1.57;;;1.47;;
15936;SDS011;9163;48.818;8.976;2023-04-25T10:31:58;2.97;;;1.73;;
15936;SDS011;9163;48.818;8.976;2023-04-25T10:34:37;3.57;;;2.03;;
15936;SDS011;9163;48.818;8.976;2023-04-25T10:37:05;3.37;;;2.90;;
15936;SDS011;9163;48.818;8.976;2023-04-25T10:39:37;3.40;;;3.10;;
15936;SDS011;9163;48.818;8.976;2023-04-25T10:42:06;5.00;;;4.50;;
15936;SDS011;9163;48.818;8.976;2023-04-25T10:44:34;5.80;;;5.20;;
15936;SDS011;9163;48.818;8.976;2023-04-25T10:47:06;7.80;;;7.00;;
15936;SDS011;9163;48.818;8.976;2023-04-25T10:49:35;5.70;;;4.53;;
15936;SDS011;9163;48.818;8.976;2023-04-25T10:52:14;5.53;;;4.80;;
15936;SDS011;9163;48.818;8.976;2023-04-25T10:54:51;5.57;;;4.60;;
15936;SDS011;9163;48.818;8.976;2023-04-25T10:57:26;5.93;;;5.33;;
15936;SDS011;9163;48.818;8.976;2023-04-25T10:59:57;5.53;;;4.43;;
15936;SDS011;9163;48.818;8.976;2023-04-25T11:02:27;5.33;;;4.40;;
15936;SDS011;9163;48.818;8.976;2023-04-25T11:04:55;6.20;;;4.87;;
15936;SDS011;9163;48.818;8.976;2023-04-25T11:07:23;12.57;;;10.23;;
15936;SDS011;9163;48.818;8.976;2023-04-25T11:09:57;5.93;;;5.07;;
15936;SDS011;9163;48.818;8.976;2023-04-25T11:12:29;4.10;;;3.00;;
15936;SDS011;9163;48.818;8.976;2023-04-25T11:15:00;6.40;;;5.10;;
15936;SDS011;9163;48.818;8.976;2023-04-25T11:17:30;3.30;;;2.70;;
15936;SDS011;9163;48.818;8.976;2023-04-25T11:19:58;4.47;;;3.10;;
15936;SDS011;9163;48.818;8.976;2023-04-25T11:22:26;4.13;;;3.53;;
15936;SDS011;9163;48.818;8.976;2023-04-25T11:24:53;4.20;;;3.30;;
15936;SDS011;9163;48.818;8.976;2023-04-25T11:27:21;2.90;;;2.43;;
15936;SDS011;9163;48.818;8.976;2023-04-25T11:29:50;2.97;;;2.43;;
15936;SDS011;9163;48.818;8.976;2023-04-25T11:32:17;3.50;;;3.03;;
15936;SDS011;9163;48.818;8.976;2023-04-25T11:34:46;2.70;;;2.50;;
15936;SDS011;9163;48.818;8.976;2023-04-25T11:37:14;3.77;;;2.10;;
15936;SDS011;9163;48.818;8.976;2023-04-25T11:39:45;2.63;;;2.37;;
15936;SDS011;9163;48.818;8.976;2023-04-25T11:42:12;5.73;;;5.00;;
15936;SDS011;9163;48.818;8.976;2023-04-25T11:44:40;3.40;;;3.10;;
15936;SDS011;9163;48.818;8.976;2023-04-25T11:47:07;3.70;;;3.17;;
15936;SDS011;9163;48.818;8.976;2023-04-25T11:49:35;4.57;;;3.83;;
15936;SDS011;9163;48.818;8.976;2023-04-25T11:52:05;5.27;;;3.77;;
15936;SDS011;9163;48.818;8.976;2023-04-25T11:54:35;7.03;;;4.63;;
15936;SDS011;9163;48.818;8.976;2023-04-25T11:57:03;6.03;;;4.40;;
15936;SDS011;9163;48.818;8.976;2023-04-25T11:59:31;9.00;;;5.10;;
15936;SDS011;9163;48.818;8.976;2023-04-25T12:01:58;6.20;;;4.60;;
15936;SDS011;9163;48.818;8.976;2023-04-25T12:04:29;6.90;;;4.93;;
15936;SDS011;9163;48.818;8.976;2023-04-25T12:06:57;9.60;;;6.00;;
15936;SDS011;9163;48.818;8.976;2023-04-25T12:09:30;6.67;;;4.97;;
15936;SDS011;9163;48.818;8.976;2023-04-25T12:11:59;8.73;;;6.20;;
15936;SDS011;9163;48.818;8.976;2023-04-25T12:14:29;5.73;;;4.73;;
15936;SDS011;9163;48.818;8.976;2023-04-25T12:16:58;7.50;;;5.10;;
15936;SDS011;9163;48.818;8.976;2023-04-25T12:19:26;6.30;;;4.97;;
15936;SDS011;9163;48.818;8.976;2023-04-25T12:21:59;5.87;;;4.90;;
15936;SDS011;9163;48.818;8.976;2023-04-25T12:24:32;6.23;;;5.20;;
15936;SDS011;9163;48.818;8.976;2023-04-25T12:27:01;6.63;;;5.13;;
15936;SDS011;9163;48.818;8.976;2023-04-25T12:29:30;9.37;;;5.97;;
15936;SDS011;9163;48.818;8.976;2023-04-25T12:31:58;7.50;;;5.00;;
15936;SDS011;9163;48.818;8.976;2023-04-25T12:34:27;8.03;;;5.43;;
15936;SDS011;9163;48.818;8.976;2023-04-25T12:36:57;8.33;;;5.77;;
15936;SDS011;9163;48.818;8.976;2023-04-25T12:39:24;9.13;;;5.60;;
15936;SDS011;9163;48.818;8.976;2023-04-25T12:41:53;7.43;;;5.53;;
15936;SDS011;9163;48.818;8.976;2023-04-25T12:44:21;30.97;;;17.10;;
15936;SDS011;9163;48.818;8.976;2023-04-25T12:46:48;10.27;;;7.83;;
15936;SDS011;9163;48.818;8.976;2023-04-25T12:49:16;7.13;;;5.60;;
15936;SDS011;9163;48.818;8.976;2023-04-25T12:51:43;8.90;;;6.00;;
15936;SDS011;9163;48.818;8.976;2023-04-25T12:54:11;6.77;;;5.63;;
15936;SDS011;9163;48.818;8.976;2023-04-25T12:56:40;7.23;;;5.80;;
15936;SDS011;9163;48.818;8.976;2023-04-25T12:59:09;7.77;;;5.13;;
15936;SDS011;9163;48.818;8.976;2023-04-25T13:01:36;6.33;;;5.60;;
15936;SDS011;9163;48.818;8.976;2023-04-25T13:04:04;8.37;;;6.20;;
15936;SDS011;9163;48.818;8.976;2023-04-25T13:06:31;8.77;;;7.20;;
15936;SDS011;9163;48.818;8.976;2023-04-25T13:08:58;7.50;;;6.37;;
15936;SDS011;9163;48.818;8.976;2023-04-25T13:11:25;6.57;;;5.83;;
15936;SDS011;9163;48.818;8.976;2023-04-25T13:13:53;7.00;;;6.03;;
15936;SDS011;9163;48.818;8.976;2023-04-25T13:16:21;8.90;;;6.90;;
15936;SDS011;9163;48.818;8.976;2023-04-25T13:18:49;8.33;;;6.17;;
15936;SDS011;9163;48.818;8.976;2023-04-25T13:21:16;8.40;;;6.00;;
15936;SDS011;9163;48.818;8.976;2023-04-25T13:23:43;14.43;;;9.43;;
15936;SDS011;9163;48.818;8.976;2023-04-25T13:26:12;7.73;;;6.90;;
15936;SDS011;9163;48.818;8.976;2023-04-25T13:28:39;9.50;;;6.37;;
15936;SDS011;9163;48.818;8.976;2023-04-25T13:31:07;8.13;;;5.93;;
15936;SDS011;9163;48.818;8.976;2023-04-25T13:33:35;9.53;;;6.87;;
15936;SDS011;9163;48.818;8.976;2023-04-25T13:36:03;12.17;;;8.00;;
15936;SDS011;9163;48.818;8.976;2023-04-25T13:38:30;8.23;;;6.07;;
15936;SDS011;9163;48.818;8.976;2023-04-25T13:40:58;8.87;;;6.43;;
15936;SDS011;9163;48.818;8.976;2023-04-25T13:43:26;9.83;;;6.67;;
15936;SDS011;9163;48.818;8.976;2023-04-25T13:45:54;8.30;;;5.93;;
15936;SDS011;9163;48.818;8.976;2023-04-25T13:48:23;6.50;;;5.70;;
15936;SDS011;9163;48.818;8.976;2023-04-25T13:50:52;5.20;;;4.27;;
15936;SDS011;9163;48.818;8.976;2023-04-25T13:53:19;6.83;;;5.90;;
15936;SDS011;9163;48.818;8.976;2023-04-25T13:55:49;5.93;;;4.23;;
15936;SDS011;9163;48.818;8.976;2023-04-25T13:58:17;5.70;;;5.10;;
15936;SDS011;9163;48.818;8.976;2023-04-25T14:00:45;5.20;;;4.20;;
15936;SDS011;9163;48.818;8.976;2023-04-25T14:03:13;4.70;;;4.20;;
15936;SDS011;9163;48.818;8.976;2023-04-25T14:05:40;5.50;;;4.20;;
15936;SDS011;9163;48.818;8.976;2023-04-25T14:08:09;6.67;;;4.40;;
15936;SDS011;9163;48.818;8.976;2023-04-25T14:10:36;7.87;;;5.57;;
15936;SDS011;9163;48.818;8.976;2023-04-25T14:13:04;7.73;;;5.20;;
15936;SDS011;9163;48.818;8.976;2023-04-25T14:15:32;7.37;;;5.20;;
15936;SDS011;9163;48.818;8.976;2023-04-25T14:18:00;7.43;;;5.30;;
15936;SDS011;9163;48.818;8.976;2023-04-25T14:20:28;6.27;;;4.90;;
15936;SDS011;9163;48.818;8.976;2023-04-25T14:22:56;6.33;;;4.70;;
15936;SDS011;9163;48.818;8.976;2023-04-25T14:25:27;6.43;;;4.80;;
15936;SDS011;9163;48.818;8.976;2023-04-25T14:27:56;6.67;;;5.30;;
15936;SDS011;9163;48.818;8.976;2023-04-25T14:30:23;7.47;;;5.07;;
15936;SDS011;9163;48.818;8.976;2023-04-25T14:32:51;5.73;;;4.73;;
15936;SDS011;9163;48.818;8.976;2023-04-25T14:35:18;4.67;;;3.87;;
15936;SDS011;9163;48.818;8.976;2023-04-25T14:37:46;6.57;;;4.60;;
15936;SDS011;9163;48.818;8.976;2023-04-25T14:40:13;5.43;;;4.00;;
15936;SDS011;9163;48.818;8.976;2023-04-25T14:42:43;5.33;;;4.10;;
15936;SDS011;9163;48.818;8.976;2023-04-25T14:45:11;5.57;;;4.10;;
15936;SDS011;9163;48.818;8.976;2023-04-25T14:47:39;4.73;;;3.90;;
15936;SDS011;9163;48.818;8.976;2023-04-25T14:50:07;4.50;;;4.07;;
15936;SDS011;9163;48.818;8.976;2023-04-25T14:52:35;9.47;;;4.07;;
15936;SDS011;9163;48.818;8.976;2023-04-25T14:55:02;12.50;;;8.20;;
15936;SDS011;9163;48.818;8.976;2023-04-25T14:57:31;6.07;;;4.57;;
15936;SDS011;9163;48.818;8.976;2023-04-25T15:00:00;7.67;;;6.10;;
15936;SDS011;9163;48.818;8.976;2023-04-25T15:02:30;5.73;;;4.93;;
15936;SDS011;9163;48.818;8.976;2023-04-25T15:04:57;5.90;;;4.50;;